Time;durP1;ratioP1;P1;durP2;ratioP2;P2;SDS_P1;SDS_P2;PMS_P1;PMS_P2;Temp;Humidity;BMP_temperature;BMP_pressure;BME280_temperature;BME280_humidity;BME280_pressure;Samples;Min_cycle;Max_cycle;Signal;HPM_P1;HPM_P2
2024/04/20 00:02:09;;;;;;;10.15;1.70;;;;;;;7.83;61.40;98515.47;5416410;26;20014;-63
2024/04/20 00:04:36;;;;;;;8.38;2.00;;;;;;;7.90;61.16;98523.09;5427280;26;20011;-63
2024/04/20 00:07:03;;;;;;;7.10;2.35;;;;;;;7.91;61.47;98519.25;5416165;26;20007;-63
2024/04/20 00:09:30;;;;;;;6.90;2.38;;;;;;;7.94;61.74;98515.88;5416285;26;20483;-63
2024/04/20 00:11:57;;;;;;;9.98;2.13;;;;;;;7.97;61.35;98522.53;5416277;26;20007;-62
2024/04/20 00:14:24;;;;;;;9.30;2.13;;;;;;;7.96;61.00;98524.47;5414860;26;20006;-62
2024/04/20 00:16:55;;;;;;;11.75;1.85;;;;;;;7.92;60.60;98520.84;5414479;26;20003;-62
2024/04/20 00:19:21;;;;;;;5.05;1.67;;;;;;;7.81;60.48;98515.00;5414088;26;20014;-63
2024/04/20 00:21:48;;;;;;;5.10;1.70;;;;;;;7.77;60.42;98516.78;5414108;26;20004;-62
2024/04/20 00:24:15;;;;;;;10.52;2.40;;;;;;;7.76;60.51;98523.31;5416059;26;19999;-62
2024/04/20 00:26:42;;;;;;;8.15;2.08;;;;;;;7.74;60.69;98520.16;5416290;26;19999;-62
2024/04/20 00:29:09;;;;;;;9.32;2.13;;;;;;;7.77;60.88;98524.13;5414439;26;20456;-63
2024/04/20 00:31:36;;;;;;;6.25;1.65;;;;;;;7.79;61.02;98522.66;5415952;26;20011;-62
2024/04/20 00:34:02;;;;;;;7.45;2.08;;;;;;;7.78;61.02;98529.22;5430267;26;19994;-62
2024/04/20 00:36:30;;;;;;;6.35;2.08;;;;;;;7.79;60.79;98528.09;5442474;26;20424;-61
2024/04/20 00:38:56;;;;;;;10.75;2.03;;;;;;;7.80;60.83;98529.69;5416417;26;20046;-62
2024/04/20 00:41:23;;;;;;;7.93;2.20;;;;;;;7.78;60.95;98529.22;5415640;26;20007;-62
2024/04/20 00:43:50;;;;;;;12.20;2.20;;;;;;;7.80;60.90;98529.69;5415853;26;20443;-62
2024/04/20 00:46:17;;;;;;;9.80;2.17;;;;;;;7.81;60.84;98535.94;5384517;26;20046;-63
2024/04/20 00:48:44;;;;;;;9.95;2.13;;;;;;;7.79;60.72;98535.44;5415980;26;20064;-63
2024/04/20 00:51:11;;;;;;;13.13;2.47;;;;;;;7.83;60.80;98539.91;5415589;26;20010;-62
2024/04/20 00:53:38;;;;;;;9.45;2.05;;;;;;;7.85;60.83;98543.09;5414217;26;20093;-62
2024/04/20 00:56:06;;;;;;;13.30;3.72;;;;;;;7.90;60.88;98548.31;5413733;26;20019;-63
2024/04/20 00:58:34;;;;;;;8.23;2.10;;;;;;;7.93;61.10;98549.56;5415803;26;20011;-62
2024/04/20 01:01:01;;;;;;;9.15;2.42;;;;;;;7.92;60.62;98556.13;5415133;26;20332;-62
2024/04/20 01:03:28;;;;;;;7.10;2.17;;;;;;;7.93;60.94;98554.19;5420981;26;20386;-62
2024/04/20 01:05:57;;;;;;;9.95;2.47;;;;;;;7.94;60.79;98551.16;5419972;26;20008;-62
2024/04/20 01:08:25;;;;;;;11.45;2.75;;;;;;;7.90;60.93;98559.16;5415421;26;20031;-62
2024/04/20 01:10:51;;;;;;;16.42;2.33;;;;;;;7.86;60.92;98555.53;5415179;26;20011;-62
2024/04/20 01:13:25;;;;;;;8.00;2.20;;;;;;;7.87;61.03;98562.56;5415551;26;20463;-62
2024/04/20 01:15:53;;;;;;;7.10;2.35;;;;;;;7.82;61.00;98557.31;5413645;26;20658;-62
2024/04/20 01:18:19;;;;;;;11.10;2.05;;;;;;;7.78;61.25;98564.50;5443268;26;20000;-62
2024/04/20 01:20:47;;;;;;;9.02;2.13;;;;;;;7.77;61.42;98564.84;5415034;26;20003;-63
2024/04/20 01:23:14;;;;;;;8.05;2.03;;;;;;;7.76;61.26;98561.31;5415095;26;20069;-63
2024/04/20 01:25:46;;;;;;;9.18;2.50;;;;;;;7.71;61.31;98566.16;5414959;26;20003;-63
2024/04/20 01:28:13;;;;;;;5.78;2.13;;;;;;;7.66;61.45;98575.28;5415048;26;20442;-62
2024/04/20 01:30:40;;;;;;;9.65;2.35;;;;;;;7.65;61.97;98571.00;5413161;26;20482;-62
2024/04/20 01:33:07;;;;;;;9.35;2.60;;;;;;;7.69;61.71;98582.78;5418042;26;20364;-62
2024/04/20 01:35:34;;;;;;;9.85;1.98;;;;;;;7.73;61.72;98581.00;5428924;26;20084;-62
2024/04/20 01:38:01;;;;;;;11.48;2.35;;;;;;;7.76;61.43;98579.53;5418286;26;20013;-62
2024/04/20 01:40:28;;;;;;;12.13;2.63;;;;;;;7.72;61.78;98587.53;5416221;26;20011;-62
2024/04/20 01:42:55;;;;;;;9.90;2.05;;;;;;;7.75;61.86;98591.50;5418828;26;20007;-63
2024/04/20 01:45:22;;;;;;;9.15;1.92;;;;;;;7.78;61.76;98597.06;5418803;26;20004;-62
2024/04/20 01:47:48;;;;;;;9.40;2.28;;;;;;;7.76;61.62;98596.63;5418404;26;20006;-62
2024/04/20 01:50:16;;;;;;;7.07;1.80;;;;;;;7.76;61.33;98603.97;5418099;26;20388;-64
2024/04/20 01:52:43;;;;;;;11.30;3.28;;;;;;;7.71;61.57;98599.53;5418105;26;20073;-62
2024/04/20 01:55:09;;;;;;;10.15;2.50;;;;;;;7.68;61.85;98600.19;5418716;26;20000;-62
2024/04/20 01:57:36;;;;;;;4.18;2.30;;;;;;;7.68;62.03;98602.09;5418723;26;19999;-63
2024/04/20 02:00:03;;;;;;;9.13;2.28;;;;;;;7.69;62.11;98606.41;5418503;26;20012;-62
2024/04/20 02:02:30;;;;;;;5.57;2.00;;;;;;;7.71;61.95;98604.16;5417925;26;19991;-63
2024/04/20 02:04:57;;;;;;;14.25;2.58;;;;;;;7.66;62.07;98609.78;5429259;26;20018;-62
2024/04/20 02:07:24;;;;;;;6.60;1.85;;;;;;;7.69;62.47;98609.91;5418494;26;20008;-63
2024/04/20 02:09:51;;;;;;;4.75;1.77;;;;;;;7.70;62.53;98618.84;5446002;26;20014;-63
2024/04/20 02:12:18;;;;;;;7.75;1.85;;;;;;;7.69;62.27;98620.78;5417847;26;20036;-62
2024/04/20 02:14:45;;;;;;;8.05;2.03;;;;;;;7.75;62.47;98619.44;5417948;26;20000;-63
2024/04/20 02:17:12;;;;;;;9.25;2.53;;;;;;;7.79;62.41;98622.31;5416242;26;19995;-62
2024/04/20 02:19:38;;;;;;;9.07;2.30;;;;;;;7.76;62.35;98623.75;5416079;26;19999;-62
2024/04/20 02:22:05;;;;;;;7.60;2.35;;;;;;;7.70;62.54;98619.66;5417363;26;20006;-62
2024/04/20 02:24:33;;;;;;;10.90;2.10;;;;;;;7.65;62.64;98624.47;5417633;26;20717;-61
2024/04/20 02:27:00;;;;;;;7.50;2.20;;;;;;;7.65;63.10;98625.25;5417856;26;20344;-63
2024/04/20 02:29:26;;;;;;;7.55;2.13;;;;;;;7.68;62.83;98627.31;5417742;26;20000;-63
2024/04/20 02:31:53;;;;;;;8.25;2.08;;;;;;;7.69;63.18;98633.53;5417505;26;20011;-62
2024/04/20 02:34:20;;;;;;;13.40;2.67;;;;;;;7.71;63.21;98631.28;5456874;26;20026;-62
2024/04/20 02:36:46;;;;;;;6.05;1.85;;;;;;;7.65;63.34;98627.97;5417595;26;20764;-62
2024/04/20 02:39:13;;;;;;;7.68;2.35;;;;;;;7.62;63.46;98628.59;5417811;26;20004;-62
2024/04/20 02:41:40;;;;;;;7.80;2.10;;;;;;;7.60;63.42;98628.13;5417483;26;20011;-61
2024/04/20 02:44:07;;;;;;;8.75;2.65;;;;;;;7.58;63.33;98631.19;5418121;26;20012;-63
2024/04/20 02:46:34;;;;;;;5.85;2.00;;;;;;;7.55;63.28;98631.03;5418816;26;19996;-62
2024/04/20 02:49:00;;;;;;;6.53;2.08;;;;;;;7.50;63.62;98632.03;5417462;26;20040;-63
2024/04/20 02:51:27;;;;;;;5.75;2.30;;;;;;;7.48;63.55;98634.25;5415337;26;19996;-62
2024/04/20 02:53:54;;;;;;;4.47;1.77;;;;;;;7.48;63.46;98630.75;5415809;26;20007;-62
2024/04/20 02:56:21;;;;;;;4.28;1.88;;;;;;;7.43;63.64;98629.00;5418068;26;20011;-63
2024/04/20 02:58:47;;;;;;;9.32;2.35;;;;;;;7.45;63.75;98637.63;5418178;26;20144;-62
2024/04/20 03:01:15;;;;;;;8.68;2.20;;;;;;;7.39;63.57;98643.53;5417627;26;20353;-62
2024/04/20 03:03:42;;;;;;;5.95;2.15;;;;;;;7.35;63.71;98639.88;5417557;26;20008;-63
2024/04/20 03:06:09;;;;;;;7.68;2.30;;;;;;;7.36;64.01;98645.00;5417182;26;20015;-63
2024/04/20 03:08:36;;;;;;;7.35;2.25;;;;;;;7.40;64.15;98662.19;5417781;26;20336;-63
2024/04/20 03:11:03;;;;;;;4.43;2.15;;;;;;;7.40;64.08;98661.41;5417848;26;20456;-63
2024/04/20 03:13:29;;;;;;;5.25;2.20;;;;;;;7.41;64.52;98666.50;5417575;26;20011;-62
2024/04/20 03:16:00;;;;;;;8.45;2.13;;;;;;;7.43;64.30;98666.97;5417081;26;19996;-63
2024/04/20 03:18:28;;;;;;;5.55;2.10;;;;;;;7.45;64.28;98675.63;5417129;26;20006;-63
2024/04/20 03:20:55;;;;;;;7.07;2.38;;;;;;;7.46;63.85;98673.69;5416922;26;20076;-63
2024/04/20 03:23:21;;;;;;;7.95;2.45;;;;;;;7.42;64.08;98675.44;5415153;26;20053;-63
2024/04/20 03:25:48;;;;;;;8.10;2.13;;;;;;;7.38;64.21;98674.50;5417049;26;20053;-64
2024/04/20 03:28:15;;;;;;;7.03;1.98;;;;;;;7.37;64.24;98676.41;5416912;26;20024;-62
2024/04/20 03:30:41;;;;;;;6.60;2.22;;;;;;;7.34;64.36;98682.50;5444950;26;20015;-63
2024/04/20 03:33:08;;;;;;;8.60;1.90;;;;;;;7.34;64.25;98678.97;5417339;26;19999;-63
2024/04/20 03:35:35;;;;;;;6.55;1.83;;;;;;;7.35;64.48;98681.38;5424910;26;20012;-63
2024/04/20 03:38:02;;;;;;;4.35;1.50;;;;;;;7.38;64.41;98688.84;5416774;26;20000;-63
2024/04/20 03:40:28;;;;;;;4.15;1.63;;;;;;;7.41;64.26;98695.56;5416308;26;19999;-63
2024/04/20 03:42:55;;;;;;;2.47;1.33;;;;;;;7.37;64.28;98705.47;5414905;26;19995;-63
2024/04/20 03:45:22;;;;;;;3.50;1.70;;;;;;;7.39;64.32;98698.59;5416624;26;20076;-63
2024/04/20 03:47:49;;;;;;;5.97;1.70;;;;;;;7.39;64.50;98704.00;5416967;26;19995;-63
2024/04/20 03:50:16;;;;;;;3.33;1.40;;;;;;;7.43;64.25;98704.97;5416337;26;20397;-64
2024/04/20 03:52:44;;;;;;;3.45;1.60;;;;;;;7.48;64.29;98709.44;5414748;26;20000;-62
2024/04/20 03:55:13;;;;;;;5.35;1.50;;;;;;;7.59;64.03;98716.88;5415063;26;20022;-63
2024/04/20 03:57:40;;;;;;;7.13;1.67;;;;;;;7.58;63.95;98726.16;5416332;26;19995;-63
2024/04/20 04:00:08;;;;;;;5.95;1.65;;;;;;;7.59;64.00;98726.94;5414301;26;20004;-63
2024/04/20 04:02:35;;;;;;;4.45;1.50;;;;;;;7.63;63.87;98727.13;5415949;26;20006;-63
2024/04/20 04:05:01;;;;;;;6.35;1.90;;;;;;;7.60;64.03;98731.25;5426914;26;20004;-63
2024/04/20 04:07:28;;;;;;;5.70;1.83;;;;;;;7.59;64.14;98732.38;5416145;26;20004;-63
2024/04/20 04:09:55;;;;;;;9.15;1.80;;;;;;;7.62;63.78;98730.94;5413962;26;19999;-63
2024/04/20 04:12:22;;;;;;;4.95;1.77;;;;;;;7.57;63.46;98745.47;5415971;26;19995;-62
2024/04/20 04:14:49;;;;;;;4.55;1.30;;;;;;;7.57;63.52;98748.97;5415943;26;20007;-63
2024/04/20 04:17:16;;;;;;;5.50;1.42;;;;;;;7.54;63.76;98752.34;5416206;26;20152;-62
2024/04/20 04:19:43;;;;;;;3.33;1.27;;;;;;;7.50;63.39;98748.69;5415685;26;20015;-63
2024/04/20 04:22:10;;;;;;;7.30;2.70;;;;;;;7.42;63.62;98752.19;5415880;26;20091;-63
2024/04/20 04:24:37;;;;;;;3.35;1.40;;;;;;;7.43;64.16;98761.13;5416093;26;19999;-62
2024/04/20 04:27:10;;;;;;;5.47;1.58;;;;;;;7.45;63.92;98762.44;5416211;26;20101;-62
2024/04/20 04:29:37;;;;;;;4.07;1.60;;;;;;;7.45;63.86;98765.16;5416046;26;20006;-63
2024/04/20 04:32:04;;;;;;;2.50;1.33;;;;;;;7.52;63.90;98764.66;5415731;26;20073;-63
2024/04/20 04:34:30;;;;;;;4.78;1.67;;;;;;;7.56;63.94;98777.25;5426910;26;20364;-63
2024/04/20 04:36:57;;;;;;;5.63;2.00;;;;;;;7.56;63.38;98781.88;5414456;26;20018;-62
2024/04/20 04:39:24;;;;;;;3.67;1.40;;;;;;;7.57;63.40;98780.75;5415532;26;20351;-63
2024/04/20 04:41:51;;;;;;;1.92;1.20;;;;;;;7.61;63.17;98773.56;5415427;26;20352;-62
2024/04/20 04:44:17;;;;;;;4.97;1.38;;;;;;;7.61;63.01;98778.97;5413771;26;20069;-63
2024/04/20 04:46:44;;;;;;;3.63;1.27;;;;;;;7.62;63.12;98780.56;5415744;26;20013;-63
2024/04/20 04:49:11;;;;;;;3.08;1.38;;;;;;;7.67;63.20;98783.13;5415458;26;19995;-63
2024/04/20 04:51:37;;;;;;;2.60;1.10;;;;;;;7.71;63.07;98786.00;5415469;26;20003;-63
2024/04/20 04:54:04;;;;;;;2.58;1.73;;;;;;;7.71;63.32;98791.44;5415577;26;20333;-63
2024/04/20 04:56:31;;;;;;;4.72;1.30;;;;;;;7.72;63.21;98790.31;5413832;26;20003;-63
2024/04/20 04:58:59;;;;;;;3.72;1.50;;;;;;;7.73;63.25;98789.97;5415595;26;20000;-63
2024/04/20 05:01:26;;;;;;;3.45;1.50;;;;;;;7.81;63.14;98791.91;5415001;26;19999;-63
2024/04/20 05:03:53;;;;;;;4.82;1.60;;;;;;;7.87;63.36;98804.16;5426320;26;19995;-63
2024/04/20 05:06:20;;;;;;;2.25;1.50;;;;;;;7.83;63.04;98808.66;5416005;26;20012;-63
2024/04/20 05:08:46;;;;;;;5.68;1.55;;;;;;;7.83;63.16;98816.81;5418706;26;20455;-63
2024/04/20 05:11:13;;;;;;;6.32;1.40;;;;;;;7.86;63.12;98818.88;5418657;26;20644;-66
2024/04/20 05:13:41;;;;;;;3.35;1.60;;;;;;;7.90;62.99;98819.00;5418994;26;20024;-63
2024/04/20 05:16:07;;;;;;;1.50;1.38;;;;;;;7.88;62.67;98826.69;5419089;26;20440;-64
2024/04/20 05:18:35;;;;;;;3.97;1.52;;;;;;;7.86;62.95;98829.72;5418710;26;20020;-65
2024/04/20 05:21:02;;;;;;;3.72;1.63;;;;;;;7.86;62.97;98821.56;5418554;26;20351;-63
2024/04/20 05:23:29;;;;;;;2.63;1.42;;;;;;;7.89;62.61;98829.06;5418285;26;20388;-62
2024/04/20 05:25:55;;;;;;;4.88;1.70;;;;;;;7.94;63.29;98835.44;5418426;26;20010;-62
2024/04/20 05:28:24;;;;;;;4.05;2.03;;;;;;;8.02;62.82;98834.66;5418337;26;20348;-62
2024/04/20 05:30:51;;;;;;;5.10;1.30;;;;;;;8.11;62.67;98840.84;5418354;26;19995;-63
2024/04/20 05:33:17;;;;;;;3.75;1.58;;;;;;;8.17;62.37;98842.25;5418393;26;20000;-63
2024/04/20 05:35:44;;;;;;;4.03;1.77;;;;;;;8.26;62.53;98845.75;5424275;26;20348;-63
2024/04/20 05:38:11;;;;;;;6.45;2.28;;;;;;;8.34;62.38;98847.66;5418394;26;20344;-63
2024/04/20 05:40:39;;;;;;;7.10;1.63;;;;;;;8.38;62.08;98854.06;5416185;26;19999;-63
2024/04/20 05:43:06;;;;;;;3.67;1.75;;;;;;;8.38;61.83;98854.06;5418089;26;20420;-63
2024/04/20 05:45:35;;;;;;;5.70;2.00;;;;;;;8.40;62.14;98865.41;5418368;26;20007;-63
2024/04/20 05:48:03;;;;;;;2.90;1.70;;;;;;;8.52;61.99;98866.63;5416454;26;20483;-63
2024/04/20 05:50:30;;;;;;;1.98;1.67;;;;;;;8.66;62.26;98867.19;5417687;26;19996;-62
2024/04/20 05:52:57;;;;;;;2.92;1.80;;;;;;;8.75;61.79;98874.22;5418091;26;20023;-64
2024/04/20 05:55:26;;;;;;;6.57;2.00;;;;;;;8.85;61.29;98872.22;5418261;26;20014;-63
2024/04/20 05:57:53;;;;;;;5.30;2.38;;;;;;;8.94;61.05;98876.50;5447484;26;19996;-63
2024/04/20 06:00:20;;;;;;;4.40;2.30;;;;;;;9.01;60.46;98884.94;5418675;26;20072;-63
2024/04/20 06:02:46;;;;;;;3.13;1.73;;;;;;;9.03;60.09;98885.41;5447563;26;20352;-63
2024/04/20 06:05:13;;;;;;;5.15;2.47;;;;;;;9.08;60.87;98887.13;5429740;26;20044;-63
2024/04/20 06:07:40;;;;;;;4.40;1.90;;;;;;;9.14;60.37;98893.19;5418732;26;20023;-63
2024/04/20 06:10:07;;;;;;;4.93;2.00;;;;;;;9.10;60.11;98893.84;5421485;26;19999;-64
2024/04/20 06:12:34;;;;;;;5.32;1.90;;;;;;;9.06;60.02;98897.53;5418279;26;19996;-63
2024/04/20 06:15:00;;;;;;;2.65;1.95;;;;;;;9.04;59.97;98897.09;5420987;26;20076;-63
2024/04/20 06:17:27;;;;;;;4.95;2.08;;;;;;;9.03;59.89;98898.22;5419690;26;20006;-64
2024/04/20 06:19:54;;;;;;;4.55;1.80;;;;;;;9.12;59.78;98909.06;5418622;26;20072;-63
2024/04/20 06:22:21;;;;;;;3.80;1.98;;;;;;;9.23;60.04;98902.88;5445870;26;20011;-64
2024/04/20 06:24:53;;;;;;;3.47;1.92;;;;;;;9.32;59.46;98906.38;5417322;26;20145;-62
2024/04/20 06:27:21;;;;;;;4.55;1.92;;;;;;;9.47;58.68;98901.44;5446011;26;20006;-63
2024/04/20 06:29:48;;;;;;;4.07;1.75;;;;;;;9.48;58.50;98906.56;5417519;26;20592;-63
2024/04/20 06:32:15;;;;;;;4.85;2.35;;;;;;;9.51;58.89;98911.34;5415191;26;20006;-63
2024/04/20 06:34:43;;;;;;;3.15;1.58;;;;;;;9.61;58.71;98924.56;5428329;26;20014;-63
2024/04/20 06:37:11;;;;;;;2.88;1.73;;;;;;;9.64;57.99;98920.38;5416990;26;20003;-63
2024/04/20 06:39:38;;;;;;;5.40;1.83;;;;;;;9.63;58.60;98930.47;5417203;26;20003;-63
2024/04/20 06:42:06;;;;;;;5.07;1.95;;;;;;;9.75;58.15;98929.75;5417317;26;19996;-63
2024/04/20 06:44:32;;;;;;;4.43;2.33;;;;;;;9.90;57.91;98931.06;5417106;26;20007;-62
2024/04/20 06:47:00;;;;;;;3.10;1.95;;;;;;;9.94;57.87;98935.53;5415582;26;19999;-62
2024/04/20 06:49:26;;;;;;;4.32;2.90;;;;;;;9.86;56.71;98927.44;5417263;26;20480;-62
2024/04/20 06:51:53;;;;;;;5.28;2.33;;;;;;;9.85;57.49;98931.25;5417030;26;20363;-63
2024/04/20 06:54:20;;;;;;;5.85;2.97;;;;;;;9.86;56.50;98941.84;5417015;26;20004;-63
2024/04/20 06:56:46;;;;;;;3.00;2.30;;;;;;;9.75;56.78;98943.38;5415377;26;19995;-63
2024/04/20 06:59:13;;;;;;;4.18;2.90;;;;;;;9.69;56.03;98940.06;5415391;26;20449;-63
2024/04/20 07:01:40;;;;;;;3.88;2.60;;;;;;;9.57;55.61;98947.34;5416729;26;20460;-63
2024/04/20 07:04:07;;;;;;;3.13;2.53;;;;;;;9.53;55.87;98954.59;5427757;26;20366;-63
2024/04/20 07:06:33;;;;;;;3.85;2.63;;;;;;;9.57;55.96;98960.97;5430125;26;20073;-62
2024/04/20 07:09:00;;;;;;;3.25;2.83;;;;;;;9.72;55.17;98957.66;5415240;26;20343;-61
2024/04/20 07:11:27;;;;;;;9.45;3.45;;;;;;;9.75;54.99;98958.91;5416938;26;20002;-63
2024/04/20 07:13:55;;;;;;;7.78;3.50;;;;;;;9.88;55.75;98952.41;5415213;26;20075;-63
2024/04/20 07:16:22;;;;;;;8.13;3.80;;;;;;;9.91;54.63;98960.72;5416897;26;20000;-62
2024/04/20 07:18:49;;;;;;;8.35;3.30;;;;;;;9.92;54.05;98964.22;5445116;26;20456;-63
2024/04/20 07:21:16;;;;;;;5.95;3.20;;;;;;;9.97;54.29;98961.28;5416458;26;20361;-63
2024/04/20 07:23:43;;;;;;;6.35;3.28;;;;;;;9.96;53.46;98965.94;5417258;26;20010;-63
2024/04/20 07:26:10;;;;;;;6.80;3.75;;;;;;;10.07;52.39;98963.63;5416341;26;20337;-63
2024/04/20 07:28:37;;;;;;;4.25;2.97;;;;;;;10.34;52.67;98975.09;5416012;26;20000;-63
2024/04/20 07:31:04;;;;;;;3.97;3.53;;;;;;;10.50;52.25;98968.69;5414051;26;20005;-62
2024/04/20 07:33:31;;;;;;;5.18;3.75;;;;;;;10.45;50.76;98976.28;5421448;26;19998;-64
2024/04/20 07:36:02;;;;;;;4.88;3.20;;;;;;;10.23;51.97;98981.00;5433046;26;20325;-63
2024/04/20 07:38:28;;;;;;;5.40;3.50;;;;;;;10.18;52.04;98981.13;5416611;26;20010;-62
2024/04/20 07:40:55;;;;;;;5.97;4.00;;;;;;;10.10;51.24;98984.75;5414791;26;19996;-63
2024/04/20 07:43:22;;;;;;;4.95;3.80;;;;;;;10.09;51.41;98990.53;5416782;26;20000;-62
2024/04/20 07:45:49;;;;;;;7.28;3.00;;;;;;;10.07;51.55;98996.31;5416540;26;19995;-63
2024/04/20 07:48:16;;;;;;;7.53;3.78;;;;;;;10.06;51.58;99000.19;5414918;26;20004;-62
2024/04/20 07:50:42;;;;;;;3.97;3.13;;;;;;;10.11;50.91;98999.97;5416590;26;20343;-62
2024/04/20 07:53:09;;;;;;;5.78;3.47;;;;;;;10.29;51.21;98993.28;5416591;26;20325;-62
2024/04/20 07:55:36;;;;;;;5.15;2.80;;;;;;;10.49;50.94;99001.75;5416638;26;20000;-62
2024/04/20 07:58:03;;;;;;;8.40;3.17;;;;;;;10.46;49.58;99002.41;5416571;26;20006;-63
2024/04/20 08:00:30;;;;;;;7.35;3.97;;;;;;;10.49;51.10;99009.94;5416055;26;20003;-62
2024/04/20 08:02:57;;;;;;;8.93;4.20;;;;;;;10.67;50.80;99014.06;5416564;26;19995;-63
2024/04/20 08:05:24;;;;;;;3.10;2.80;;;;;;;10.82;49.60;99013.44;5427365;26;20444;-62
2024/04/20 08:07:51;;;;;;;4.40;3.10;;;;;;;10.72;49.62;99021.25;5416504;26;20309;-63
2024/04/20 08:10:17;;;;;;;5.85;3.25;;;;;;;10.75;50.51;99020.56;5415921;26;20002;-62
2024/04/20 08:12:44;;;;;;;5.88;3.33;;;;;;;10.85;49.43;99017.41;5416609;26;20076;-62
2024/04/20 08:15:11;;;;;;;19.98;10.68;;;;;;;10.66;49.50;99031.56;5416260;26;20072;-63
2024/04/20 08:17:39;;;;;;;9.05;3.83;;;;;;;10.62;49.31;99022.47;5414578;26;20003;-62
2024/04/20 08:20:06;;;;;;;6.72;3.22;;;;;;;10.60;50.10;99033.72;5414405;26;20007;-62
2024/04/20 08:22:33;;;;;;;6.47;4.07;;;;;;;10.76;50.33;99035.78;5415679;26;20011;-63
2024/04/20 08:25:00;;;;;;;6.22;3.40;;;;;;;10.93;48.80;99041.88;5415777;26;19991;-63
2024/04/20 08:27:26;;;;;;;2.85;2.55;;;;;;;11.00;47.64;99041.34;5416071;26;20417;-63
2024/04/20 08:29:53;;;;;;;7.18;3.63;;;;;;;11.07;48.35;99038.03;5416000;26;20449;-62
2024/04/20 08:32:20;;;;;;;4.95;4.20;;;;;;;11.46;48.85;99053.78;5413890;26;19999;-62
2024/04/20 08:34:47;;;;;;;9.35;3.63;;;;;;;11.90;47.21;99051.31;5426819;26;20015;-62
2024/04/20 08:37:13;;;;;;;4.55;3.10;;;;;;;12.13;47.50;99049.66;5416339;26;20016;-62
2024/04/20 08:39:40;;;;;;;4.55;3.45;;;;;;;12.34;46.48;99048.69;5416268;26;19996;-62
2024/04/20 08:42:29;;;;;;;5.53;3.88;;;;;;;12.38;46.31;99052.31;5414166;26;20003;-62
2024/04/20 08:44:59;;;;;;;4.78;3.00;;;;;;;12.18;45.76;99065.00;5414679;26;20068;-62
2024/04/20 08:47:26;;;;;;;3.90;3.10;;;;;;;11.89;45.55;99060.59;5416675;26;20082;-64
2024/04/20 08:49:53;;;;;;;6.07;3.80;;;;;;;11.60;47.03;99078.03;5415016;26;19991;-62
2024/04/20 08:52:20;;;;;;;5.03;3.85;;;;;;;11.51;47.47;99083.59;5385517;26;19996;-63
2024/04/20 08:54:50;;;;;;;4.22;3.00;;;;;;;11.21;48.29;99093.13;5416027;26;20006;-62
2024/04/20 08:57:21;;;;;;;8.27;3.60;;;;;;;10.78;50.88;99099.00;5416572;26;20076;-61
2024/04/20 08:59:49;;;;;;;6.40;3.85;;;;;;;10.41;52.40;99104.31;5416089;26;19999;-62
2024/04/20 09:02:26;;;;;;;4.22;2.38;;;;;;;10.25;52.98;99106.81;5413679;26;20007;-62
2024/04/20 09:04:57;;;;;;;5.60;3.38;;;;;;;10.51;54.29;99101.16;5426417;26;20003;-63
2024/04/20 09:07:28;;;;;;;4.13;2.85;;;;;;;10.99;53.32;99098.97;5415553;26;20003;-62
2024/04/20 09:09:55;;;;;;;4.80;3.38;;;;;;;11.37;52.69;99104.97;5415343;26;20004;-62
2024/04/20 09:12:22;;;;;;;4.47;2.83;;;;;;;11.69;52.32;99105.22;5415107;26;20011;-62
2024/04/20 09:14:48;;;;;;;5.88;3.67;;;;;;;11.92;52.21;99103.66;5415209;26;19992;-62
2024/04/20 09:17:15;;;;;;;6.03;3.60;;;;;;;12.09;52.27;99100.69;5415654;26;20424;-63
2024/04/20 09:19:42;;;;;;;3.95;3.03;;;;;;;12.28;51.59;99102.84;5414952;26;20007;-63
2024/04/20 09:22:10;;;;;;;4.55;3.50;;;;;;;12.37;51.63;99110.88;5414882;26;20464;-63
2024/04/20 09:24:37;;;;;;;3.92;3.08;;;;;;;12.45;50.19;99109.94;5413372;26;20000;-63
2024/04/20 09:27:05;;;;;;;5.05;3.53;;;;;;;12.49;50.83;99110.88;5443241;26;20008;-63
2024/04/20 09:29:32;;;;;;;4.72;3.70;;;;;;;12.59;51.09;99115.84;5414745;26;20000;-62
2024/04/20 09:31:59;;;;;;;5.95;3.78;;;;;;;12.64;50.68;99110.16;5414865;26;20467;-63
2024/04/20 09:34:26;;;;;;;4.95;3.40;;;;;;;12.55;49.75;99125.88;5423690;26;20452;-63
2024/04/20 09:36:53;;;;;;;7.72;3.60;;;;;;;12.39;49.58;99116.81;5415363;26;20077;-62
2024/04/20 09:39:20;;;;;;;5.55;3.25;;;;;;;12.34;49.40;99123.31;5412955;26;20010;-62
2024/04/20 09:41:52;;;;;;;5.80;3.50;;;;;;;12.31;49.23;99121.28;5413108;26;20006;-64
2024/04/20 09:44:19;;;;;;;8.45;4.80;;;;;;;12.34;49.95;99126.06;5412958;26;20045;-63
2024/04/20 09:46:48;;;;;;;10.35;8.48;;;;;;;12.31;49.29;99124.00;5383744;26;20015;-63
2024/04/20 09:49:15;;;;;;;6.43;5.03;;;;;;;12.39;49.71;99119.53;5414483;26;20000;-63
2024/04/20 09:51:56;;;;;;;7.65;3.70;;;;;;;12.52;48.18;99125.78;5414416;26;20460;-63
2024/04/20 09:54:26;;;;;;;3.47;2.83;;;;;;;12.25;47.27;99124.56;5415936;26;19996;-63
2024/04/20 09:56:54;;;;;;;6.93;3.00;;;;;;;12.04;48.10;99117.31;5418276;26;20455;-64
2024/04/20 09:59:22;;;;;;;5.40;3.50;;;;;;;12.12;48.69;99119.13;5418149;26;20010;-62
2024/04/20 10:01:51;;;;;;;3.50;2.30;;;;;;;12.04;47.13;99116.50;5418017;26;20036;-63
2024/04/20 10:04:23;;;;;;;2.85;2.30;;;;;;;12.14;47.50;99124.25;5428935;26;20337;-63
2024/04/20 10:06:50;;;;;;;3.67;2.40;;;;;;;12.26;47.37;99121.50;5416060;26;20105;-63
2024/04/20 10:09:19;;;;;;;2.10;1.90;;;;;;;12.34;47.43;99115.13;5417708;26;20008;-62
2024/04/20 10:11:46;;;;;;;4.38;2.30;;;;;;;12.55;47.79;99123.16;5415868;26;20073;-63
2024/04/20 10:14:14;;;;;;;3.40;2.40;;;;;;;12.87;47.32;99117.81;5417851;26;19996;-63
2024/04/20 10:16:41;;;;;;;2.47;1.63;;;;;;;12.95;46.29;99116.84;5417751;26;20007;-63
2024/04/20 10:19:07;;;;;;;2.03;1.52;;;;;;;12.99;46.19;99117.72;5417534;26;20072;-63
2024/04/20 10:21:34;;;;;;;1.35;1.10;;;;;;;13.04;46.17;99126.50;5417324;26;20014;-63
2024/04/20 10:24:01;;;;;;;2.15;1.45;;;;;;;13.04;45.97;99131.19;5418306;26;19995;-63
2024/04/20 10:26:29;;;;;;;2.47;1.50;;;;;;;12.79;46.57;99135.16;5418747;26;20076;-64
2024/04/20 10:29:09;;;;;;;3.35;1.73;;;;;;;12.48;46.62;99135.84;5418986;26;19996;-63
2024/04/20 10:31:37;;;;;;;5.97;1.25;;;;;;;12.24;47.77;99142.13;5416909;26;20007;-63
2024/04/20 10:34:05;;;;;;;5.50;1.85;;;;;;;12.08;48.38;99134.63;5430303;26;19994;-63
2024/04/20 10:36:31;;;;;;;3.58;1.20;;;;;;;11.86;46.99;99148.75;5420245;26;20015;-63
2024/04/20 10:39:04;;;;;;;2.45;1.48;;;;;;;11.66;47.82;99144.16;5421010;26;20000;-63
2024/04/20 10:41:39;;;;;;;6.20;3.13;;;;;;;11.58;48.08;99153.25;5421838;26;20068;-63
2024/04/20 10:44:12;;;;;;;3.15;2.30;;;;;;;11.74;48.77;99155.00;5424608;26;20007;-63
2024/04/20 10:46:53;;;;;;;1.98;1.70;;;;;;;11.87;48.76;99149.53;5419651;26;20003;-63
2024/04/20 10:49:24;;;;;;;2.47;1.52;;;;;;;12.05;49.01;99137.25;5416862;26;20000;-64
2024/04/20 10:51:56;;;;;;;3.45;2.75;;;;;;;12.35;49.10;99133.13;5415600;26;20003;-63
2024/04/20 10:54:24;;;;;;;2.80;1.58;;;;;;;12.64;48.34;99123.81;5417573;26;20465;-63
2024/04/20 10:56:53;;;;;;;3.45;1.15;;;;;;;12.62;47.23;99133.50;5416430;26;20072;-63
2024/04/20 10:59:21;;;;;;;1.02;0.85;;;;;;;12.70;47.25;99119.69;5418361;26;20040;-63
2024/04/20 11:01:48;;;;;;;2.13;0.80;;;;;;;13.05;45.80;99121.84;5416791;26;20011;-63
2024/04/20 11:04:17;;;;;;;1.48;0.95;;;;;;;13.18;44.01;99120.63;5426278;26;19995;-63
2024/04/20 11:06:46;;;;;;;2.28;1.55;;;;;;;13.39;44.74;99116.84;5417138;26;20007;-63
2024/04/20 11:09:13;;;;;;;0.88;0.80;;;;;;;13.51;44.03;99111.31;5415000;26;19999;-63
2024/04/20 11:11:39;;;;;;;2.30;1.75;;;;;;;13.87;44.26;99111.03;5385042;26;19999;-63
2024/04/20 11:14:06;;;;;;;3.75;2.83;;;;;;;13.94;43.71;99113.13;5417203;26;20076;-63
2024/04/20 11:16:33;;;;;;;1.70;0.80;;;;;;;14.16;42.74;99114.44;5416981;26;20039;-64
2024/04/20 11:19:00;;;;;;;2.33;1.55;;;;;;;14.40;43.20;99103.22;5417205;26;19995;-64
2024/04/20 11:21:27;;;;;;;1.33;0.70;;;;;;;14.53;43.06;99107.47;5418335;26;20006;-64
2024/04/20 11:23:54;;;;;;;2.53;1.00;;;;;;;14.73;42.33;99104.72;5418496;26;20346;-64
2024/04/20 11:26:21;;;;;;;1.00;0.90;;;;;;;14.71;42.30;99107.03;5416830;26;20010;-63
2024/04/20 11:28:48;;;;;;;1.45;0.73;;;;;;;14.90;42.54;99101.53;5417074;26;19996;-63
2024/04/20 11:31:15;;;;;;;0.60;0.60;;;;;;;15.15;40.94;99102.00;5417387;26;20079;-63
2024/04/20 11:33:47;;;;;;;0.82;0.70;;;;;;;15.30;40.07;99111.31;5428305;26;19999;-64
2024/04/20 11:36:16;;;;;;;0.73;0.68;;;;;;;15.41;39.58;99101.28;5416586;26;20013;-63
2024/04/20 11:38:46;;;;;;;0.60;0.60;;;;;;;15.30;39.87;99094.81;5416140;26;20065;-64
2024/04/20 11:41:24;;;;;;;0.50;0.50;;;;;;;14.72;40.71;99097.66;5416136;26;19999;-63